createdAt,value
2022-11-03T00:01:50.112Z,100523.41
2022-11-03T00:04:20.079Z,100603.91
2022-11-03T00:06:49.693Z,100523.19
2022-11-03T00:09:19.119Z,100611.06
2022-11-03T00:11:49.125Z,100613.16
2022-11-03T00:14:17.272Z,100543.97
2022-11-03T00:16:47.227Z,100372.91
2022-11-03T00:19:17.349Z,100606.09
2022-11-03T00:21:45.326Z,100609.09
2022-11-03T00:24:13.985Z,100602.97
2022-11-03T00:26:42.004Z,100602.97
2022-11-03T00:29:11.777Z,100597.66
2022-11-03T00:31:41.781Z,100589.59
2022-11-03T00:34:11.954Z,100601.13
2022-11-03T00:36:41.164Z,100587.88
2022-11-03T00:39:09.494Z,100591.63
2022-11-03T00:41:38.408Z,100577.41
2022-11-03T00:44:07.058Z,100588.03
2022-11-03T00:46:35.640Z,100573.91
2022-11-03T00:49:04.182Z,100577.13
2022-11-03T00:51:34.479Z,100556.44
2022-11-03T00:54:04.920Z,100565.72
2022-11-03T00:56:34.603Z,100331.50
2022-11-03T00:59:03.618Z,100495.38
2022-11-03T01:01:33.229Z,100561.09
2022-11-03T01:04:18.891Z,100561.00
2022-11-03T01:06:54.488Z,100556.56
2022-11-03T01:09:24.376Z,100532.13
2022-11-03T01:11:58.068Z,100514.25
2022-11-03T01:14:28.266Z,100554.13
2022-11-03T01:16:56.212Z,100545.91
2022-11-03T01:19:25.339Z,100535.28
2022-11-03T01:21:55.219Z,100523.19
2022-11-03T01:24:23.411Z,100425.63
2022-11-03T01:26:51.374Z,100513.72
2022-11-03T01:29:19.768Z,100386.75
2022-11-03T01:31:47.737Z,100542.34
2022-11-03T01:34:16.824Z,100425.59
2022-11-03T01:36:45.466Z,100503.28
2022-11-03T01:39:17.201Z,100492.25
2022-11-03T01:41:47.362Z,100532.50
2022-11-03T01:44:43.112Z,100523.50
2022-11-03T01:47:20.177Z,100462.63
2022-11-03T01:49:51.423Z,100509.13
2022-11-03T01:52:25.227Z,100510.59
2022-11-03T01:55:00.365Z,100502.50
2022-11-03T01:57:34.451Z,100501.41
2022-11-03T02:00:03.435Z,100492.59
2022-11-03T02:02:41.299Z,100432.06
2022-11-03T02:05:11.957Z,100488.19
2022-11-03T02:07:45.393Z,100489.00
2022-11-03T02:10:15.219Z,100422.53
2022-11-03T02:12:44.592Z,100471.56
2022-11-03T02:15:15.470Z,100502.44
2022-11-03T02:17:44.532Z,100506.97
2022-11-03T02:20:16.157Z,100493.97
2022-11-03T02:23:22.506Z,100510.88
2022-11-03T02:25:53.862Z,100508.66
2022-11-03T02:28:24.447Z,100473.03
2022-11-03T02:31:01.060Z,100410.06
2022-11-03T02:33:36.849Z,100501.19
2022-11-03T02:36:12.089Z,100492.59
2022-11-03T02:38:47.171Z,100494.66
2022-11-03T02:41:18.975Z,100490.41
2022-11-03T02:43:49.983Z,100458.94
2022-11-03T02:46:19.490Z,100479.28
2022-11-03T02:48:48.717Z,100470.97
2022-11-03T02:51:16.683Z,100421.09
2022-11-03T02:53:48.254Z,100438.34
2022-11-03T02:56:21.471Z,100458.31
2022-11-03T02:58:55.543Z,100451.16
2022-11-03T03:01:29.783Z,100446.88
2022-11-03T03:04:00.838Z,100438.94
2022-11-03T03:06:33.149Z,100445.22
2022-11-03T03:09:05.160Z,100444.47
2022-11-03T03:11:39.090Z,100447.72
2022-11-03T03:14:13.817Z,100446.97
2022-11-03T03:16:49.050Z,100440.56
2022-11-03T03:19:27.077Z,100432.22
2022-11-03T03:22:00.479Z,100430.25
2022-11-03T03:24:37.685Z,100397.50
2022-11-03T03:27:11.539Z,100409.53
2022-11-03T03:29:47.477Z,100403.75
2022-11-03T03:32:20.249Z,100382.72
2022-11-03T03:34:50.508Z,100410.63
2022-11-03T03:37:20.610Z,100362.34
2022-11-03T03:39:53.911Z,100409.91
2022-11-03T03:42:28.523Z,100384.44
2022-11-03T03:44:58.096Z,100392.81
2022-11-03T03:47:29.999Z,100391.00
2022-11-03T03:49:58.628Z,100383.00
2022-11-03T03:52:27.010Z,100392.63
2022-11-03T03:54:55.687Z,100377.38
2022-11-03T03:57:26.988Z,100376.25
2022-11-03T03:59:55.016Z,100370.28
2022-11-03T04:02:23.331Z,100372.91
2022-11-03T04:04:51.413Z,100369.13
2022-11-03T04:07:42.398Z,100369.81
2022-11-03T04:10:12.159Z,100369.06
2022-11-03T04:13:00.509Z,100348.63
2022-11-03T04:15:46.274Z,100358.81
2022-11-03T04:18:31.852Z,100358.09
2022-11-03T04:21:17.341Z,100314.47
2022-11-03T04:23:45.323Z,100345.78
2022-11-03T04:26:15.104Z,100349.75
2022-11-03T04:28:45.064Z,100345.59
2022-11-03T04:31:15.163Z,100346.47
2022-11-03T04:33:44.194Z,100339.78
2022-11-03T04:36:16.030Z,100303.53
2022-11-03T04:38:44.911Z,100317.09
2022-11-03T04:41:17.568Z,100316.88
2022-11-03T04:43:47.406Z,100328.94
2022-11-03T04:46:18.434Z,100319.22
2022-11-03T04:48:47.563Z,100320.34
2022-11-03T04:51:17.806Z,100318.28
2022-11-03T04:53:48.620Z,100316.56
2022-11-03T04:56:20.587Z,100221.75
2022-11-03T04:58:50.160Z,100299.84
2022-11-03T05:01:24.001Z,100300.16
2022-11-03T05:03:55.644Z,100254.00
2022-11-03T05:06:27.014Z,100289.84
2022-11-03T05:08:57.642Z,100292.50
2022-11-03T05:11:31.088Z,100297.84
2022-11-03T05:14:02.808Z,100293.38
2022-11-03T05:16:32.289Z,100287.97
2022-11-03T05:19:00.656Z,100287.34
2022-11-03T05:21:29.385Z,100261.28
2022-11-03T05:24:02.360Z,100289.88
2022-11-03T05:26:35.245Z,100262.53
2022-11-03T05:29:10.618Z,100279.84
2022-11-03T05:31:41.777Z,100276.97
2022-11-03T05:34:26.170Z,100278.41
2022-11-03T05:36:54.100Z,100268.84
2022-11-03T05:39:30.216Z,100272.44
2022-11-03T05:42:00.310Z,100180.13
2022-11-03T05:44:36.841Z,100258.16
2022-11-03T05:47:14.196Z,100256.69
2022-11-03T05:49:42.171Z,100258.38
2022-11-03T05:52:14.857Z,100254.81
2022-11-03T05:54:42.900Z,100245.81
2022-11-03T05:57:12.619Z,100120.16
2022-11-03T05:59:42.196Z,100238.81
2022-11-03T06:02:35.852Z,100251.34
2022-11-03T06:05:12.675Z,100228.63
2022-11-03T06:07:40.618Z,100249.91
2022-11-03T06:10:22.573Z,100243.69
2022-11-03T06:12:50.794Z,100242.94
2022-11-03T06:15:30.223Z,100244.41
2022-11-03T06:17:58.741Z,100248.88
2022-11-03T06:20:27.358Z,100248.06
2022-11-03T06:22:56.941Z,100245.00
2022-11-03T06:25:30.324Z,100234.44
2022-11-03T06:28:03.245Z,100166.63
2022-11-03T06:30:34.296Z,100206.47
2022-11-03T06:33:14.133Z,100211.63
2022-11-03T06:35:42.164Z,100230.56
2022-11-03T06:38:16.867Z,100232.22
2022-11-03T06:40:45.933Z,100230.38
2022-11-03T06:43:22.847Z,100228.28
2022-11-03T06:45:54.762Z,100227.78
2022-11-03T06:48:26.537Z,100226.69
2022-11-03T06:50:55.711Z,100203.84
2022-11-03T06:53:27.562Z,100217.38
2022-11-03T06:55:56.850Z,100224.59
2022-11-03T06:58:29.477Z,100219.84
2022-11-03T07:01:03.528Z,100216.78
2022-11-03T07:03:33.586Z,100197.38
2022-11-03T07:06:04.685Z,100197.16
2022-11-03T07:08:37.118Z,100178.81
2022-11-03T07:11:12.202Z,100200.41
2022-11-03T07:13:40.251Z,100184.75
2022-11-03T07:16:18.909Z,100194.25
2022-11-03T07:18:48.805Z,100198.31
2022-11-03T07:21:32.342Z,100180.03
2022-11-03T07:24:02.560Z,100194.78
2022-11-03T07:26:30.466Z,100194.00
2022-11-03T07:28:58.433Z,100187.56
2022-11-03T07:31:27.801Z,100140.19
2022-11-03T07:33:59.098Z,100179.84
2022-11-03T07:36:31.657Z,100180.91
2022-11-03T07:39:02.317Z,100172.88
2022-11-03T07:41:34.617Z,100157.03
2022-11-03T07:44:03.567Z,100156.75
2022-11-03T07:46:32.871Z,100160.06
2022-11-03T07:49:02.885Z,100161.38
2022-11-03T07:51:33.276Z,100037.50
2022-11-03T07:54:04.103Z,100148.88
2022-11-03T07:56:36.560Z,100142.88
2022-11-03T07:59:13.301Z,100147.03
2022-11-03T08:01:45.001Z,100152.63
2022-11-03T08:04:18.032Z,100131.81
2022-11-03T08:06:45.932Z,100140.28
2022-11-03T08:09:13.826Z,100129.03
2022-11-03T08:11:41.684Z,100139.75
2022-11-03T08:14:10.400Z,100124.25
2022-11-03T08:16:38.626Z,100117.16
2022-11-03T08:19:08.191Z,100025.44
2022-11-03T08:21:36.212Z,100056.56
2022-11-03T08:24:04.430Z,100107.03
2022-11-03T08:26:32.628Z,100102.06
2022-11-03T08:29:00.557Z,100106.50
2022-11-03T08:31:28.472Z,100089.47
2022-11-03T08:33:56.393Z,100092.75
2022-11-03T08:36:25.961Z,100053.28
2022-11-03T08:38:53.852Z,100086.38
2022-11-03T08:41:21.745Z,100084.19
2022-11-03T08:43:49.748Z,100078.41
2022-11-03T08:46:18.513Z,100066.88
2022-11-03T08:48:47.749Z,100068.69
2022-11-03T08:51:16.926Z,100065.66
2022-11-03T08:53:46.447Z,100066.44
2022-11-03T08:56:17.004Z,100037.44
2022-11-03T08:58:47.268Z,100056.06
2022-11-03T09:01:15.440Z,100055.13
2022-11-03T09:03:43.593Z,100048.66
2022-11-03T09:06:11.840Z,100049.13
2022-11-03T09:11:29.124Z,100042.84
2022-11-03T09:13:57.881Z,100053.13
2022-11-03T09:16:26.580Z,100043.53
2022-11-03T09:18:54.458Z,100028.56
2022-11-03T09:21:22.417Z,99982.03
2022-11-03T09:23:50.377Z,99986.75
2022-11-03T09:26:18.300Z,100010.50
2022-11-03T09:28:49.427Z,99978.00
2022-11-03T09:31:17.633Z,99995.00
2022-11-03T09:33:45.721Z,99991.69
2022-11-03T09:36:13.699Z,100007.56
2022-11-03T09:38:41.659Z,100000.53
2022-11-03T09:41:19.056Z,99989.13
2022-11-03T09:43:58.565Z,99985.50
2022-11-03T09:46:28.029Z,100002.53
2022-11-03T09:48:56.881Z,100001.69
2022-11-03T09:51:27.784Z,99996.53
2022-11-03T09:53:59.098Z,99937.38
2022-11-03T09:56:28.054Z,99937.91
2022-11-03T09:58:57.619Z,99945.69
2022-11-03T10:01:25.802Z,99971.91
2022-11-03T10:03:56.364Z,99976.81
2022-11-03T10:06:24.971Z,99977.38
2022-11-03T10:08:52.929Z,99986.13
2022-11-03T10:11:20.960Z,99978.94
2022-11-03T10:13:53.669Z,99995.91
2022-11-03T10:16:25.938Z,99950.81
2022-11-03T10:18:54.489Z,99977.13
2022-11-03T10:21:27.779Z,99884.38
2022-11-03T10:23:55.634Z,99965.19
2022-11-03T10:26:23.663Z,99951.44
2022-11-03T10:29:04.195Z,99937.50
2022-11-03T10:31:38.750Z,99937.69
2022-11-03T10:34:24.326Z,99913.63
2022-11-03T10:37:10.265Z,99933.56
2022-11-03T10:39:38.473Z,99935.13
2022-11-03T10:42:06.715Z,99934.53
2022-11-03T10:44:34.884Z,99932.66
2022-11-03T10:47:06.843Z,99913.44
2022-11-03T10:49:39.443Z,99913.72
2022-11-03T10:52:19.520Z,99897.50
2022-11-03T10:54:48.013Z,99871.06
2022-11-03T10:57:16.760Z,99888.97
2022-11-03T10:59:46.287Z,99916.59
2022-11-03T11:02:19.717Z,99899.03
2022-11-03T11:04:49.897Z,99892.81
2022-11-03T11:07:22.244Z,99886.34
2022-11-03T11:09:50.372Z,99878.69
2022-11-03T11:12:20.312Z,99866.81
2022-11-03T11:14:57.346Z,99871.78
2022-11-03T11:17:46.770Z,99870.31
2022-11-03T11:20:32.552Z,99790.13
2022-11-03T11:23:49.513Z,99858.56
2022-11-03T11:26:31.768Z,99810.06
2022-11-03T11:29:43.132Z,99847.91
2022-11-03T11:32:50.970Z,99836.78
2022-11-03T11:36:05.018Z,99821.25
2022-11-03T11:39:09.387Z,99828.56
2022-11-03T11:42:13.277Z,99831.00
2022-11-03T11:45:03.017Z,99795.16
2022-11-03T11:47:34.576Z,99806.41
2022-11-03T11:50:32.909Z,99803.50
2022-11-03T11:53:06.021Z,99770.72
2022-11-03T11:55:41.752Z,99787.94
2022-11-03T11:58:18.199Z,99781.38
2022-11-03T12:01:01.534Z,99766.97
2022-11-03T12:03:37.434Z,99772.28
2022-11-03T12:06:07.249Z,99775.63
2022-11-03T12:08:35.495Z,99745.38
2022-11-03T12:11:05.564Z,99753.53
2022-11-03T12:13:51.310Z,99755.28
2022-11-03T12:16:30.005Z,99752.91
2022-11-03T12:19:01.445Z,99635.16
2022-11-03T12:21:52.029Z,99616.06
2022-11-03T12:24:27.348Z,99731.06
2022-11-03T12:26:55.506Z,99700.25
2022-11-03T12:29:23.405Z,99713.97
2022-11-03T12:31:51.820Z,99657.69
2022-11-03T12:34:20.048Z,99685.06
2022-11-03T12:36:54.750Z,99692.97
2022-11-03T12:39:24.135Z,99699.00
2022-11-03T12:41:52.316Z,99688.97
2022-11-03T12:44:20.379Z,99684.56
2022-11-03T12:46:48.412Z,99649.63
2022-11-03T12:49:16.502Z,99672.50
2022-11-03T12:51:44.417Z,99656.91
2022-11-03T12:54:13.894Z,99669.56
2022-11-03T12:56:42.352Z,99666.34
2022-11-03T12:59:11.104Z,99657.56
2022-11-03T13:01:39.237Z,99626.41
2022-11-03T13:04:08.686Z,99632.44
2022-11-03T13:06:36.934Z,99660.56
2022-11-03T13:09:05.112Z,99652.50
2022-11-03T13:11:50.968Z,99642.94
2022-11-03T13:14:18.966Z,99579.91
2022-11-03T13:16:47.111Z,99618.41
2022-11-03T13:19:15.488Z,99617.09
2022-11-03T13:21:43.500Z,99619.59
2022-11-03T13:24:11.774Z,99621.63
2022-11-03T13:26:41.183Z,99617.38
2022-11-03T13:29:09.229Z,99593.03
2022-11-03T13:31:37.245Z,99605.94
2022-11-03T13:34:05.215Z,99596.66
2022-11-03T13:36:33.210Z,99594.09
2022-11-03T13:39:01.553Z,99562.44
2022-11-03T13:41:29.605Z,99587.50
2022-11-03T13:43:58.942Z,99578.25
2022-11-03T13:46:26.915Z,99586.06
2022-11-03T13:51:43.019Z,99565.31
2022-11-03T13:59:48.807Z,99562.84
2022-11-03T14:05:07.253Z,99547.31
2022-11-03T14:07:36.824Z,99528.72
2022-11-03T14:10:05.850Z,99499.81
2022-11-03T14:12:32.899Z,99540.72
2022-11-03T14:15:04.088Z,99524.00
2022-11-03T14:17:32.259Z,99524.78
2022-11-03T14:20:04.145Z,99500.25
2022-11-03T14:22:33.526Z,99494.97
2022-11-03T14:25:02.310Z,99495.47
2022-11-03T14:27:30.361Z,99472.31
2022-11-03T14:29:58.516Z,99473.50
2022-11-03T14:32:27.954Z,99450.63
2022-11-03T14:34:56.091Z,99446.41
2022-11-03T14:37:25.383Z,99426.50
2022-11-03T14:39:53.495Z,99465.91
2022-11-03T14:42:20.428Z,99451.69
2022-11-03T14:44:48.708Z,99338.06
2022-11-03T14:47:18.861Z,99446.38
2022-11-03T14:49:49.028Z,99441.00
2022-11-03T14:52:17.950Z,99438.16
2022-11-03T14:54:45.907Z,99429.03
2022-11-03T14:57:13.842Z,99369.75
2022-11-03T14:59:41.798Z,99400.09
2022-11-03T15:02:09.942Z,99409.91
2022-11-03T15:04:37.972Z,99410.28
2022-11-03T15:07:07.448Z,99410.19
2022-11-03T15:09:35.433Z,99373.31
2022-11-03T15:12:03.332Z,99319.06
2022-11-03T15:14:31.312Z,99363.63
2022-11-03T15:16:59.155Z,99404.97
2022-11-03T15:19:27.047Z,99392.53
2022-11-03T15:21:54.980Z,99397.13
2022-11-03T15:27:13.511Z,99371.41
2022-11-03T15:29:41.683Z,99368.81
2022-11-03T15:32:09.589Z,99382.81
2022-11-03T15:34:37.492Z,99377.81
2022-11-03T15:37:05.456Z,99376.78
2022-11-03T15:39:34.678Z,99312.19
2022-11-03T15:42:02.552Z,99372.47
2022-11-03T15:44:30.479Z,99341.56
2022-11-03T15:46:58.486Z,99351.03
2022-11-03T15:49:26.391Z,99351.63
2022-11-03T15:51:54.257Z,99349.06
2022-11-03T15:54:22.164Z,99314.19
2022-11-03T15:56:51.426Z,99340.78
2022-11-03T15:59:19.841Z,99324.88
2022-11-03T16:01:47.868Z,99259.03
2022-11-03T16:04:16.704Z,99326.38
2022-11-03T16:09:32.645Z,99288.19
2022-11-03T16:12:02.862Z,99309.13
2022-11-03T16:14:30.993Z,99302.78
2022-11-03T16:16:58.906Z,99295.59
2022-11-03T16:19:26.850Z,99294.63
2022-11-03T16:21:54.807Z,99277.75
2022-11-03T16:24:22.845Z,99274.75
2022-11-03T16:26:51.101Z,99273.72
2022-11-03T16:29:20.823Z,99261.91
2022-11-03T16:31:50.270Z,99267.47
2022-11-03T16:34:18.321Z,99240.44
2022-11-03T16:36:46.314Z,99247.13
2022-11-03T16:39:14.218Z,99250.00
2022-11-03T16:41:42.079Z,99248.38
2022-11-03T16:44:10.031Z,99253.19
2022-11-03T16:46:39.386Z,99246.28
2022-11-03T16:49:07.275Z,99234.38
2022-11-03T16:51:35.429Z,99239.19
2022-11-03T16:54:03.339Z,99233.31
2022-11-03T16:56:31.552Z,99226.53
2022-11-03T16:58:59.506Z,99210.13
2022-11-03T17:01:29.470Z,99214.03
2022-11-03T17:03:58.929Z,99213.28
2022-11-03T17:06:26.895Z,99191.72
2022-11-03T17:08:54.950Z,99202.06
2022-11-03T17:11:36.749Z,99203.69
2022-11-03T17:14:06.180Z,99205.13
2022-11-03T17:16:34.597Z,99167.75
2022-11-03T17:19:04.262Z,99194.69
2022-11-03T17:21:32.338Z,99184.50
2022-11-03T17:24:01.002Z,99174.53
2022-11-03T17:26:42.920Z,99183.44
2022-11-03T17:29:16.539Z,99141.09
2022-11-03T17:31:44.632Z,99126.91
2022-11-03T17:34:14.045Z,99167.53
2022-11-03T17:36:42.134Z,99169.28
2022-11-03T17:39:14.837Z,99164.66
2022-11-03T17:41:43.685Z,99165.13
2022-11-03T17:44:13.739Z,99156.72
2022-11-03T17:46:41.643Z,99149.03
2022-11-03T17:49:09.714Z,99123.94
2022-11-03T17:51:43.138Z,99118.94
2022-11-03T17:54:17.293Z,99149.03
2022-11-03T17:56:45.628Z,99148.38
2022-11-03T17:59:16.541Z,99156.88
2022-11-03T18:01:45.471Z,99149.50
2022-11-03T18:06:45.557Z,99157.94
2022-11-03T18:09:13.546Z,99156.13
2022-11-03T18:12:01.861Z,99156.22
2022-11-03T18:14:30.847Z,99150.00
2022-11-03T18:16:59.626Z,99147.47
2022-11-03T18:19:27.992Z,99112.91
2022-11-03T18:21:57.482Z,99155.06
2022-11-03T18:24:26.823Z,99100.75
2022-11-03T18:26:54.892Z,99142.97
2022-11-03T18:29:22.841Z,99070.72
2022-11-03T18:31:51.085Z,99140.03
2022-11-03T18:34:22.767Z,99137.69
2022-11-03T18:36:52.747Z,99139.78
2022-11-03T18:39:25.389Z,99144.34
2022-11-03T18:41:53.415Z,99137.22
2022-11-03T18:44:23.145Z,99025.31
2022-11-03T18:46:52.349Z,99130.44
2022-11-03T18:49:21.000Z,99127.19
2022-11-03T18:51:51.639Z,99120.38
2022-11-03T18:54:21.689Z,99083.00
2022-11-03T18:56:52.880Z,99085.28
2022-11-03T18:59:24.706Z,99102.25
2022-11-03T19:01:52.941Z,99095.72
2022-11-03T19:04:21.556Z,99068.63
2022-11-03T19:06:51.300Z,99086.78
2022-11-03T19:09:21.823Z,99031.41
2022-11-03T19:11:52.385Z,99082.81
2022-11-03T19:14:24.065Z,99073.00
2022-11-03T19:19:41.850Z,99058.22
2022-11-03T19:22:14.097Z,99050.78
2022-11-03T19:24:42.585Z,98853.59
2022-11-03T19:27:18.232Z,99025.19
2022-11-03T19:29:47.616Z,99042.84
2022-11-03T19:32:21.269Z,99008.25
2022-11-03T19:34:52.558Z,99028.16
2022-11-03T19:37:20.563Z,98922.41
2022-11-03T19:39:49.176Z,99029.22
2022-11-03T19:42:27.812Z,99023.78
2022-11-03T19:44:56.116Z,98966.44
2022-11-03T19:47:28.278Z,99002.44
2022-11-03T19:50:00.482Z,99004.22
2022-11-03T19:52:30.939Z,98995.41
2022-11-03T19:55:01.801Z,98993.03
2022-11-03T19:57:31.285Z,98998.28
2022-11-03T19:59:59.718Z,98973.31
2022-11-03T20:02:28.332Z,98993.34
2022-11-03T20:04:56.579Z,98982.50
2022-11-03T20:07:31.055Z,98984.09
2022-11-03T20:10:01.040Z,98991.31
2022-11-03T20:12:30.936Z,98982.69
2022-11-03T20:15:00.668Z,98974.16
2022-11-03T20:17:28.670Z,98969.19
2022-11-03T20:19:56.614Z,98978.19
2022-11-03T20:22:30.189Z,98899.50
2022-11-03T20:25:03.218Z,98974.72
2022-11-03T20:27:32.601Z,98968.50
2022-11-03T20:30:03.383Z,98957.97
2022-11-03T20:32:31.385Z,98967.28
2022-11-03T20:34:59.491Z,98958.47
2022-11-03T20:37:27.482Z,98956.94
2022-11-03T20:39:55.436Z,98951.19
2022-11-03T20:42:25.910Z,98973.44
2022-11-03T20:44:54.825Z,98962.69
2022-11-03T20:47:24.171Z,98959.03
2022-11-03T20:49:52.253Z,98963.56
2022-11-03T20:52:20.392Z,98971.69
2022-11-03T20:54:48.460Z,98972.66
2022-11-03T20:57:16.607Z,98976.56
2022-11-03T20:59:44.626Z,98962.41
2022-11-03T21:02:14.082Z,98989.31
2022-11-03T21:04:44.133Z,98983.84
2022-11-03T21:07:13.810Z,98977.75
2022-11-03T21:09:41.775Z,98980.88
2022-11-03T21:12:13.107Z,98983.19
2022-11-03T21:15:04.101Z,98979.16
2022-11-03T21:18:00.840Z,98976.97
2022-11-03T21:20:32.367Z,98989.88
2022-11-03T21:23:00.575Z,98986.44
2022-11-03T21:25:28.779Z,98977.13
2022-11-03T21:27:56.669Z,98973.72
2022-11-03T21:30:25.193Z,98953.69
2022-11-03T21:32:53.243Z,98929.19
2022-11-03T21:35:23.006Z,98964.50
2022-11-03T21:37:52.524Z,98959.34
2022-11-03T21:40:20.820Z,98950.34
2022-11-03T21:43:06.317Z,98956.00
2022-11-03T21:45:34.634Z,98884.97
2022-11-03T21:48:20.563Z,98952.13
2022-11-03T21:50:49.813Z,98940.66
2022-11-03T21:53:19.237Z,98937.41
2022-11-03T21:55:49.404Z,98937.88
2022-11-03T21:58:17.525Z,98893.22
2022-11-03T22:00:47.057Z,98918.91
2022-11-03T22:03:15.268Z,98898.84
2022-11-03T22:05:43.434Z,98878.59
2022-11-03T22:08:11.505Z,98724.88
2022-11-03T22:10:41.558Z,98853.16
2022-11-03T22:13:10.008Z,98869.97
2022-11-03T22:15:55.602Z,98850.22
2022-11-03T22:18:23.990Z,98853.13
2022-11-03T22:21:09.543Z,98843.28
2022-11-03T22:23:54.971Z,98823.50
2022-11-03T22:26:41.454Z,98841.84
2022-11-03T22:29:26.576Z,98787.53
2022-11-03T22:31:54.508Z,98850.44
2022-11-03T22:34:39.896Z,98847.66
2022-11-03T22:37:07.823Z,98827.88
2022-11-03T22:39:53.140Z,98850.44
2022-11-03T22:42:39.720Z,98851.97
2022-11-03T22:45:27.369Z,98853.72
2022-11-03T22:47:57.520Z,98836.13
2022-11-03T22:50:25.824Z,98809.91
2022-11-03T22:52:53.694Z,98833.88
2022-11-03T22:55:20.634Z,98835.19
2022-11-03T22:57:50.074Z,98853.03
2022-11-03T23:00:20.483Z,98848.53
2022-11-03T23:02:48.656Z,98851.41
2022-11-03T23:05:17.000Z,98846.59
2022-11-03T23:07:44.863Z,98767.34
2022-11-03T23:10:12.788Z,98848.78
2022-11-03T23:12:40.906Z,98860.38
2022-11-03T23:15:28.711Z,98743.66
2022-11-03T23:18:13.951Z,98832.56
2022-11-03T23:21:08.198Z,98853.69
2022-11-03T23:23:54.383Z,98843.31
2022-11-03T23:26:22.589Z,98805.66
2022-11-03T23:28:51.167Z,98822.66
2022-11-03T23:31:20.559Z,98820.19
2022-11-03T23:33:48.643Z,98840.94
2022-11-03T23:36:18.314Z,98841.25
2022-11-03T23:38:46.315Z,98785.84
2022-11-03T23:41:16.385Z,98768.72
2022-11-03T23:43:45.405Z,98796.91
2022-11-03T23:46:32.419Z,98837.72
2022-11-03T23:49:01.896Z,98814.38
2022-11-03T23:51:31.965Z,98827.06
2022-11-03T23:54:00.444Z,98825.44
2022-11-03T23:56:55.704Z,98827.84
2022-11-03T23:59:24.390Z,98825.69
